sensor_id;sensor_type;location;lat;lon;timestamp;P1;durP1;ratioP1;P2;durP2;ratioP2
43801;SDS011;29429;51.074;13.764;2023-10-13T00:02:07;9.23;;;5.90;;
43801;SDS011;29429;51.074;13.764;2023-10-13T00:04:37;10.65;;;6.28;;
43801;SDS011;29429;51.074;13.764;2023-10-13T00:07:05;8.52;;;5.60;;
43801;SDS011;29429;51.074;13.764;2023-10-13T00:09:36;11.35;;;6.40;;
43801;SDS011;29429;51.074;13.764;2023-10-13T00:12:04;12.45;;;6.40;;
43801;SDS011;29429;51.074;13.764;2023-10-13T00:14:41;8.70;;;5.57;;
43801;SDS011;29429;51.074;13.764;2023-10-13T00:17:11;11.88;;;6.30;;
43801;SDS011;29429;51.074;13.764;2023-10-13T00:19:51;7.85;;;5.97;;
43801;SDS011;29429;51.074;13.764;2023-10-13T00:22:19;9.50;;;6.05;;
43801;SDS011;29429;51.074;13.764;2023-10-13T00:24:49;10.75;;;5.82;;
43801;SDS011;29429;51.074;13.764;2023-10-13T00:27:19;11.38;;;6.80;;
43801;SDS011;29429;51.074;13.764;2023-10-13T00:29:56;11.13;;;6.00;;
43801;SDS011;29429;51.074;13.764;2023-10-13T00:32:47;10.18;;;5.88;;
43801;SDS011;29429;51.074;13.764;2023-10-13T00:35:23;8.05;;;5.78;;
43801;SDS011;29429;51.074;13.764;2023-10-13T00:37:55;8.00;;;5.82;;
43801;SDS011;29429;51.074;13.764;2023-10-13T00:40:25;9.45;;;5.70;;
43801;SDS011;29429;51.074;13.764;2023-10-13T00:42:59;7.82;;;5.65;;
43801;SDS011;29429;51.074;13.764;2023-10-13T00:45:57;9.60;;;5.82;;
43801;SDS011;29429;51.074;13.764;2023-10-13T00:48:42;12.35;;;7.47;;
43801;SDS011;29429;51.074;13.764;2023-10-13T00:51:23;13.45;;;7.45;;
43801;SDS011;29429;51.074;13.764;2023-10-13T00:54:08;11.50;;;6.72;;
43801;SDS011;29429;51.074;13.764;2023-10-13T00:56:41;12.73;;;7.63;;
43801;SDS011;29429;51.074;13.764;2023-10-13T00:59:24;14.48;;;7.57;;
43801;SDS011;29429;51.074;13.764;2023-10-13T01:01:52;12.00;;;7.50;;
43801;SDS011;29429;51.074;13.764;2023-10-13T01:04:22;13.68;;;6.82;;
43801;SDS011;29429;51.074;13.764;2023-10-13T01:06:54;12.07;;;7.40;;
43801;SDS011;29429;51.074;13.764;2023-10-13T01:09:21;11.77;;;6.28;;
43801;SDS011;29429;51.074;13.764;2023-10-13T01:11:51;8.82;;;6.30;;
43801;SDS011;29429;51.074;13.764;2023-10-13T01:14:20;11.27;;;6.88;;
43801;SDS011;29429;51.074;13.764;2023-10-13T01:16:48;14.90;;;7.55;;
43801;SDS011;29429;51.074;13.764;2023-10-13T01:19:19;11.13;;;7.15;;
43801;SDS011;29429;51.074;13.764;2023-10-13T01:21:56;9.85;;;6.30;;
43801;SDS011;29429;51.074;13.764;2023-10-13T01:24:29;12.35;;;7.43;;
43801;SDS011;29429;51.074;13.764;2023-10-13T01:27:04;10.85;;;6.15;;
43801;SDS011;29429;51.074;13.764;2023-10-13T01:29:51;10.60;;;6.25;;
43801;SDS011;29429;51.074;13.764;2023-10-13T01:32:25;10.77;;;6.15;;
43801;SDS011;29429;51.074;13.764;2023-10-13T01:34:53;10.50;;;6.60;;
43801;SDS011;29429;51.074;13.764;2023-10-13T01:37:24;9.90;;;6.57;;
43801;SDS011;29429;51.074;13.764;2023-10-13T01:39:52;11.63;;;5.97;;
43801;SDS011;29429;51.074;13.764;2023-10-13T01:42:19;10.60;;;6.55;;
43801;SDS011;29429;51.074;13.764;2023-10-13T01:44:49;11.48;;;6.72;;
43801;SDS011;29429;51.074;13.764;2023-10-13T01:47:17;11.90;;;6.85;;
43801;SDS011;29429;51.074;13.764;2023-10-13T01:49:44;9.80;;;5.70;;
43801;SDS011;29429;51.074;13.764;2023-10-13T01:52:17;7.97;;;5.47;;
43801;SDS011;29429;51.074;13.764;2023-10-13T01:54:45;7.40;;;5.35;;
43801;SDS011;29429;51.074;13.764;2023-10-13T01:57:16;7.10;;;5.47;;
43801;SDS011;29429;51.074;13.764;2023-10-13T01:59:45;8.30;;;6.15;;
43801;SDS011;29429;51.074;13.764;2023-10-13T02:02:16;12.70;;;6.85;;
43801;SDS011;29429;51.074;13.764;2023-10-13T02:04:56;8.10;;;5.45;;
43801;SDS011;29429;51.074;13.764;2023-10-13T02:07:28;9.32;;;6.03;;
43801;SDS011;29429;51.074;13.764;2023-10-13T02:10:01;6.93;;;5.22;;
43801;SDS011;29429;51.074;13.764;2023-10-13T02:12:33;8.93;;;5.72;;
43801;SDS011;29429;51.074;13.764;2023-10-13T02:15:10;7.95;;;5.47;;
43801;SDS011;29429;51.074;13.764;2023-10-13T02:17:48;9.48;;;5.78;;
43801;SDS011;29429;51.074;13.764;2023-10-13T02:20:22;7.63;;;5.80;;
43801;SDS011;29429;51.074;13.764;2023-10-13T02:22:51;9.32;;;6.30;;
43801;SDS011;29429;51.074;13.764;2023-10-13T02:25:19;9.63;;;5.45;;
43801;SDS011;29429;51.074;13.764;2023-10-13T02:28:02;9.50;;;5.80;;
43801;SDS011;29429;51.074;13.764;2023-10-13T02:30:39;8.57;;;6.20;;
43801;SDS011;29429;51.074;13.764;2023-10-13T02:33:15;7.97;;;5.57;;
43801;SDS011;29429;51.074;13.764;2023-10-13T02:35:51;9.50;;;5.75;;
43801;SDS011;29429;51.074;13.764;2023-10-13T02:38:22;7.00;;;5.60;;
43801;SDS011;29429;51.074;13.764;2023-10-13T02:41:14;6.18;;;4.95;;
43801;SDS011;29429;51.074;13.764;2023-10-13T02:43:52;7.03;;;5.18;;
43801;SDS011;29429;51.074;13.764;2023-10-13T02:46:22;8.48;;;6.07;;
43801;SDS011;29429;51.074;13.764;2023-10-13T02:48:50;7.70;;;5.55;;
43801;SDS011;29429;51.074;13.764;2023-10-13T02:51:22;8.20;;;5.50;;
43801;SDS011;29429;51.074;13.764;2023-10-13T02:54:02;8.98;;;6.35;;
43801;SDS011;29429;51.074;13.764;2023-10-13T02:56:36;7.65;;;5.45;;
43801;SDS011;29429;51.074;13.764;2023-10-13T02:59:14;7.93;;;5.35;;
43801;SDS011;29429;51.074;13.764;2023-10-13T03:01:46;7.72;;;4.60;;
43801;SDS011;29429;51.074;13.764;2023-10-13T03:04:18;7.60;;;5.50;;
43801;SDS011;29429;51.074;13.764;2023-10-13T03:06:52;8.18;;;5.72;;
43801;SDS011;29429;51.074;13.764;2023-10-13T03:09:19;6.30;;;4.53;;
43801;SDS011;29429;51.074;13.764;2023-10-13T03:11:49;7.70;;;5.60;;
43801;SDS011;29429;51.074;13.764;2023-10-13T03:14:20;10.93;;;6.28;;
43801;SDS011;29429;51.074;13.764;2023-10-13T03:16:58;6.55;;;5.40;;
43801;SDS011;29429;51.074;13.764;2023-10-13T03:19:44;7.80;;;4.95;;
43801;SDS011;29429;51.074;13.764;2023-10-13T03:22:17;7.15;;;5.35;;
43801;SDS011;29429;51.074;13.764;2023-10-13T03:24:45;7.10;;;5.13;;
43801;SDS011;29429;51.074;13.764;2023-10-13T03:27:13;7.07;;;4.85;;
43801;SDS011;29429;51.074;13.764;2023-10-13T03:29:44;5.78;;;4.90;;
43801;SDS011;29429;51.074;13.764;2023-10-13T03:32:21;7.93;;;5.43;;
43801;SDS011;29429;51.074;13.764;2023-10-13T03:34:52;7.15;;;4.57;;
43801;SDS011;29429;51.074;13.764;2023-10-13T03:37:26;7.50;;;4.50;;
43801;SDS011;29429;51.074;13.764;2023-10-13T03:40:09;5.97;;;5.03;;
43801;SDS011;29429;51.074;13.764;2023-10-13T03:42:48;7.35;;;4.97;;
43801;SDS011;29429;51.074;13.764;2023-10-13T03:45:42;10.27;;;5.53;;
43801;SDS011;29429;51.074;13.764;2023-10-13T03:48:15;9.30;;;5.13;;
43801;SDS011;29429;51.074;13.764;2023-10-13T03:50:53;7.45;;;5.05;;
43801;SDS011;29429;51.074;13.764;2023-10-13T03:53:38;7.35;;;4.82;;
43801;SDS011;29429;51.074;13.764;2023-10-13T03:56:22;5.65;;;4.72;;
43801;SDS011;29429;51.074;13.764;2023-10-13T03:58:59;7.47;;;4.60;;
43801;SDS011;29429;51.074;13.764;2023-10-13T04:01:32;7.50;;;4.85;;
43801;SDS011;29429;51.074;13.764;2023-10-13T04:04:12;6.13;;;4.25;;
43801;SDS011;29429;51.074;13.764;2023-10-13T04:07:02;6.97;;;4.68;;
43801;SDS011;29429;51.074;13.764;2023-10-13T04:09:36;5.85;;;4.57;;
43801;SDS011;29429;51.074;13.764;2023-10-13T04:12:17;6.50;;;4.80;;
43801;SDS011;29429;51.074;13.764;2023-10-13T04:15:05;8.70;;;5.28;;
43801;SDS011;29429;51.074;13.764;2023-10-13T04:17:36;8.32;;;5.50;;
43801;SDS011;29429;51.074;13.764;2023-10-13T04:20:13;9.50;;;5.47;;
43801;SDS011;29429;51.074;13.764;2023-10-13T04:22:54;7.75;;;5.18;;
43801;SDS011;29429;51.074;13.764;2023-10-13T04:25:25;8.60;;;4.75;;
43801;SDS011;29429;51.074;13.764;2023-10-13T04:28:06;6.78;;;4.90;;
43801;SDS011;29429;51.074;13.764;2023-10-13T04:30:43;4.95;;;4.43;;
43801;SDS011;29429;51.074;13.764;2023-10-13T04:33:25;5.80;;;4.95;;
43801;SDS011;29429;51.074;13.764;2023-10-13T04:36:15;6.45;;;4.50;;
43801;SDS011;29429;51.074;13.764;2023-10-13T04:38:50;7.53;;;4.68;;
43801;SDS011;29429;51.074;13.764;2023-10-13T04:41:48;7.25;;;4.00;;
43801;SDS011;29429;51.074;13.764;2023-10-13T04:44:16;6.85;;;4.50;;
43801;SDS011;29429;51.074;13.764;2023-10-13T04:46:57;8.50;;;4.85;;
43801;SDS011;29429;51.074;13.764;2023-10-13T04:49:26;6.95;;;5.35;;
43801;SDS011;29429;51.074;13.764;2023-10-13T04:52:09;8.10;;;5.43;;
43801;SDS011;29429;51.074;13.764;2023-10-13T04:57:17;8.63;;;4.63;;
43801;SDS011;29429;51.074;13.764;2023-10-13T04:59:52;5.80;;;4.57;;
43801;SDS011;29429;51.074;13.764;2023-10-13T05:02:39;7.25;;;4.70;;
43801;SDS011;29429;51.074;13.764;2023-10-13T05:08:08;8.52;;;4.97;;
43801;SDS011;29429;51.074;13.764;2023-10-13T05:10:54;8.77;;;4.95;;
43801;SDS011;29429;51.074;13.764;2023-10-13T05:13:40;8.60;;;5.07;;
43801;SDS011;29429;51.074;13.764;2023-10-13T05:16:26;11.27;;;5.38;;
43801;SDS011;29429;51.074;13.764;2023-10-13T05:19:12;7.22;;;4.78;;
43801;SDS011;29429;51.074;13.764;2023-10-13T05:21:58;7.70;;;5.18;;
43801;SDS011;29429;51.074;13.764;2023-10-13T05:24:44;10.52;;;5.22;;
43801;SDS011;29429;51.074;13.764;2023-10-13T05:27:30;9.68;;;5.05;;
43801;SDS011;29429;51.074;13.764;2023-10-13T05:30:16;6.38;;;4.32;;
43801;SDS011;29429;51.074;13.764;2023-10-13T05:33:02;7.20;;;4.38;;
43801;SDS011;29429;51.074;13.764;2023-10-13T05:35:49;6.68;;;4.88;;
43801;SDS011;29429;51.074;13.764;2023-10-13T05:38:35;7.75;;;4.85;;
43801;SDS011;29429;51.074;13.764;2023-10-13T05:41:22;5.97;;;4.25;;
43801;SDS011;29429;51.074;13.764;2023-10-13T05:44:08;6.22;;;4.70;;
43801;SDS011;29429;51.074;13.764;2023-10-13T05:46:54;7.60;;;4.68;;
43801;SDS011;29429;51.074;13.764;2023-10-13T05:49:39;6.57;;;4.80;;
43801;SDS011;29429;51.074;13.764;2023-10-13T05:52:16;5.82;;;4.38;;
43801;SDS011;29429;51.074;13.764;2023-10-13T05:55:27;5.03;;;4.00;;
43801;SDS011;29429;51.074;13.764;2023-10-13T05:58:14;4.80;;;3.95;;
43801;SDS011;29429;51.074;13.764;2023-10-13T06:01:00;6.25;;;4.50;;
43801;SDS011;29429;51.074;13.764;2023-10-13T06:03:47;8.27;;;4.63;;
43801;SDS011;29429;51.074;13.764;2023-10-13T06:06:33;7.97;;;4.53;;
43801;SDS011;29429;51.074;13.764;2023-10-13T06:09:19;8.68;;;5.05;;
43801;SDS011;29429;51.074;13.764;2023-10-13T06:12:07;8.43;;;4.60;;
43801;SDS011;29429;51.074;13.764;2023-10-13T06:14:54;5.55;;;4.07;;
43801;SDS011;29429;51.074;13.764;2023-10-13T06:17:40;7.00;;;4.40;;
43801;SDS011;29429;51.074;13.764;2023-10-13T06:20:26;8.82;;;4.72;;
43801;SDS011;29429;51.074;13.764;2023-10-13T06:23:12;10.65;;;4.60;;
43801;SDS011;29429;51.074;13.764;2023-10-13T06:25:58;6.75;;;4.28;;
43801;SDS011;29429;51.074;13.764;2023-10-13T06:28:44;5.70;;;3.92;;
43801;SDS011;29429;51.074;13.764;2023-10-13T06:31:15;5.68;;;3.67;;
43801;SDS011;29429;51.074;13.764;2023-10-13T06:33:49;7.17;;;3.53;;
43801;SDS011;29429;51.074;13.764;2023-10-13T06:36:17;6.10;;;4.18;;
43801;SDS011;29429;51.074;13.764;2023-10-13T06:38:49;5.40;;;3.70;;
43801;SDS011;29429;51.074;13.764;2023-10-13T06:41:22;6.15;;;3.28;;
43801;SDS011;29429;51.074;13.764;2023-10-13T06:44:07;6.65;;;4.15;;
43801;SDS011;29429;51.074;13.764;2023-10-13T06:46:41;3.90;;;3.30;;
43801;SDS011;29429;51.074;13.764;2023-10-13T06:49:09;6.60;;;4.07;;
43801;SDS011;29429;51.074;13.764;2023-10-13T06:51:39;8.55;;;5.32;;
43801;SDS011;29429;51.074;13.764;2023-10-13T06:54:10;4.40;;;3.53;;
43801;SDS011;29429;51.074;13.764;2023-10-13T06:56:47;5.53;;;4.00;;
43801;SDS011;29429;51.074;13.764;2023-10-13T06:59:19;7.50;;;4.63;;
43801;SDS011;29429;51.074;13.764;2023-10-13T07:01:53;7.93;;;5.73;;
43801;SDS011;29429;51.074;13.764;2023-10-13T07:04:20;10.05;;;6.53;;
43801;SDS011;29429;51.074;13.764;2023-10-13T07:06:48;9.18;;;7.07;;
43801;SDS011;29429;51.074;13.764;2023-10-13T07:09:16;11.15;;;7.13;;
43801;SDS011;29429;51.074;13.764;2023-10-13T07:12:03;9.05;;;7.32;;
43801;SDS011;29429;51.074;13.764;2023-10-13T07:14:48;11.18;;;7.90;;
43801;SDS011;29429;51.074;13.764;2023-10-13T07:17:21;8.32;;;7.35;;
43801;SDS011;29429;51.074;13.764;2023-10-13T07:19:53;9.52;;;8.25;;
43801;SDS011;29429;51.074;13.764;2023-10-13T07:22:23;9.75;;;8.25;;
43801;SDS011;29429;51.074;13.764;2023-10-13T07:24:54;12.85;;;9.80;;
43801;SDS011;29429;51.074;13.764;2023-10-13T07:27:24;12.65;;;9.80;;
43801;SDS011;29429;51.074;13.764;2023-10-13T07:29:52;11.40;;;9.25;;
43801;SDS011;29429;51.074;13.764;2023-10-13T07:32:40;12.75;;;10.38;;
43801;SDS011;29429;51.074;13.764;2023-10-13T07:35:17;11.95;;;10.25;;
43801;SDS011;29429;51.074;13.764;2023-10-13T07:40:20;12.60;;;11.18;;
43801;SDS011;29429;51.074;13.764;2023-10-13T07:42:55;11.00;;;9.85;;
43801;SDS011;29429;51.074;13.764;2023-10-13T07:45:39;12.40;;;10.52;;
43801;SDS011;29429;51.074;13.764;2023-10-13T07:48:09;13.15;;;11.55;;
43801;SDS011;29429;51.074;13.764;2023-10-13T07:50:47;12.30;;;11.00;;
43801;SDS011;29429;51.074;13.764;2023-10-13T07:53:27;13.05;;;11.73;;
43801;SDS011;29429;51.074;13.764;2023-10-13T07:56:01;14.73;;;12.00;;
43801;SDS011;29429;51.074;13.764;2023-10-13T07:58:32;14.88;;;12.00;;
43801;SDS011;29429;51.074;13.764;2023-10-13T08:01:00;13.60;;;11.10;;
43801;SDS011;29429;51.074;13.764;2023-10-13T08:03:34;14.73;;;11.43;;
43801;SDS011;29429;51.074;13.764;2023-10-13T08:06:13;13.80;;;11.32;;
43801;SDS011;29429;51.074;13.764;2023-10-13T08:08:46;14.87;;;11.60;;
43801;SDS011;29429;51.074;13.764;2023-10-13T08:11:17;13.65;;;10.40;;
43801;SDS011;29429;51.074;13.764;2023-10-13T08:14:04;13.55;;;11.88;;
43801;SDS011;29429;51.074;13.764;2023-10-13T08:17:03;13.40;;;11.98;;
43801;SDS011;29429;51.074;13.764;2023-10-13T08:19:37;14.40;;;11.18;;
43801;SDS011;29429;51.074;13.764;2023-10-13T08:22:14;11.75;;;9.30;;
43801;SDS011;29429;51.074;13.764;2023-10-13T08:24:46;10.30;;;9.20;;
43801;SDS011;29429;51.074;13.764;2023-10-13T08:27:32;9.57;;;8.35;;
43801;SDS011;29429;51.074;13.764;2023-10-13T08:30:18;10.05;;;8.05;;
43801;SDS011;29429;51.074;13.764;2023-10-13T08:33:18;10.57;;;7.65;;
43801;SDS011;29429;51.074;13.764;2023-10-13T08:35:51;8.55;;;7.22;;
43801;SDS011;29429;51.074;13.764;2023-10-13T08:39:03;10.10;;;7.57;;
43801;SDS011;29429;51.074;13.764;2023-10-13T08:42:40;8.88;;;7.60;;
43801;SDS011;29429;51.074;13.764;2023-10-13T08:45:11;10.05;;;6.97;;
43801;SDS011;29429;51.074;13.764;2023-10-13T08:47:52;7.97;;;5.82;;
43801;SDS011;29429;51.074;13.764;2023-10-13T08:50:21;9.65;;;6.22;;
43801;SDS011;29429;51.074;13.764;2023-10-13T08:53:24;7.63;;;5.85;;
43801;SDS011;29429;51.074;13.764;2023-10-13T08:58:46;6.50;;;5.28;;
43801;SDS011;29429;51.074;13.764;2023-10-13T09:01:26;5.78;;;4.70;;
43801;SDS011;29429;51.074;13.764;2023-10-13T09:04:01;7.63;;;5.15;;
43801;SDS011;29429;51.074;13.764;2023-10-13T09:06:59;6.30;;;4.97;;
43801;SDS011;29429;51.074;13.764;2023-10-13T09:09:49;8.13;;;4.55;;
43801;SDS011;29429;51.074;13.764;2023-10-13T09:13:03;5.53;;;4.35;;
43801;SDS011;29429;51.074;13.764;2023-10-13T09:15:51;5.70;;;4.65;;
43801;SDS011;29429;51.074;13.764;2023-10-13T09:18:43;5.65;;;4.55;;
43801;SDS011;29429;51.074;13.764;2023-10-13T09:21:15;5.38;;;4.15;;
43801;SDS011;29429;51.074;13.764;2023-10-13T09:24:33;5.57;;;3.83;;
43801;SDS011;29429;51.074;13.764;2023-10-13T09:27:25;5.35;;;3.72;;
43801;SDS011;29429;51.074;13.764;2023-10-13T09:30:02;3.67;;;3.08;;
43801;SDS011;29429;51.074;13.764;2023-10-13T09:36:16;4.32;;;3.30;;
43801;SDS011;29429;51.074;13.764;2023-10-13T09:38:45;4.32;;;3.00;;
43801;SDS011;29429;51.074;13.764;2023-10-13T09:41:37;4.65;;;3.40;;
43801;SDS011;29429;51.074;13.764;2023-10-13T09:44:06;3.63;;;2.67;;
43801;SDS011;29429;51.074;13.764;2023-10-13T09:46:36;4.45;;;2.60;;
43801;SDS011;29429;51.074;13.764;2023-10-13T09:49:12;4.03;;;2.70;;
43801;SDS011;29429;51.074;13.764;2023-10-13T09:51:49;3.65;;;2.65;;
43801;SDS011;29429;51.074;13.764;2023-10-13T09:54:28;3.88;;;2.42;;
43801;SDS011;29429;51.074;13.764;2023-10-13T09:57:06;3.67;;;2.42;;
43801;SDS011;29429;51.074;13.764;2023-10-13T10:04:08;3.03;;;2.05;;
43801;SDS011;29429;51.074;13.764;2023-10-13T10:06:40;3.30;;;2.10;;
43801;SDS011;29429;51.074;13.764;2023-10-13T10:09:19;3.28;;;2.38;;
43801;SDS011;29429;51.074;13.764;2023-10-13T10:12:16;3.42;;;2.50;;
43801;SDS011;29429;51.074;13.764;2023-10-13T10:17:47;5.15;;;4.03;;
43801;SDS011;29429;51.074;13.764;2023-10-13T10:20:16;5.88;;;4.35;;
43801;SDS011;29429;51.074;13.764;2023-10-13T10:23:23;7.82;;;6.40;;
43801;SDS011;29429;51.074;13.764;2023-10-13T10:25:51;8.10;;;6.97;;
43801;SDS011;29429;51.074;13.764;2023-10-13T10:28:37;10.23;;;7.90;;
43801;SDS011;29429;51.074;13.764;2023-10-13T10:31:06;10.43;;;7.80;;
43801;SDS011;29429;51.074;13.764;2023-10-13T10:33:39;10.88;;;8.90;;
43801;SDS011;29429;51.074;13.764;2023-10-13T10:36:07;10.25;;;8.50;;
43801;SDS011;29429;51.074;13.764;2023-10-13T10:38:53;12.35;;;9.75;;
43801;SDS011;29429;51.074;13.764;2023-10-13T10:41:29;11.70;;;9.23;;
43801;SDS011;29429;51.074;13.764;2023-10-13T10:44:12;13.65;;;10.32;;
43801;SDS011;29429;51.074;13.764;2023-10-13T10:46:45;11.20;;;9.27;;
43801;SDS011;29429;51.074;13.764;2023-10-13T11:24:56;8.82;;;4.25;;
43801;SDS011;29429;51.074;13.764;2023-10-13T11:27:38;8.98;;;4.28;;
43801;SDS011;29429;51.074;13.764;2023-10-13T18:32:42;6.15;;;3.75;;
43801;SDS011;29429;51.074;13.764;2023-10-13T18:35:13;6.07;;;3.92;;
43801;SDS011;29429;51.074;13.764;2023-10-13T18:37:41;5.88;;;3.70;;
43801;SDS011;29429;51.074;13.764;2023-10-13T18:40:12;8.75;;;4.25;;
43801;SDS011;29429;51.074;13.764;2023-10-13T18:42:44;6.43;;;4.35;;
43801;SDS011;29429;51.074;13.764;2023-10-13T18:45:17;8.68;;;4.43;;
43801;SDS011;29429;51.074;13.764;2023-10-13T18:47:51;6.95;;;4.32;;
43801;SDS011;29429;51.074;13.764;2023-10-13T18:50:21;5.63;;;3.53;;
43801;SDS011;29429;51.074;13.764;2023-10-13T18:52:50;8.55;;;4.30;;
43801;SDS011;29429;51.074;13.764;2023-10-13T18:55:19;7.63;;;3.95;;
43801;SDS011;29429;51.074;13.764;2023-10-13T18:57:46;7.90;;;4.18;;
43801;SDS011;29429;51.074;13.764;2023-10-13T19:00:13;7.22;;;3.55;;
43801;SDS011;29429;51.074;13.764;2023-10-13T19:02:42;5.40;;;3.72;;
43801;SDS011;29429;51.074;13.764;2023-10-13T19:05:12;8.13;;;4.22;;
43801;SDS011;29429;51.074;13.764;2023-10-13T19:07:40;6.45;;;3.78;;
43801;SDS011;29429;51.074;13.764;2023-10-13T19:10:09;7.38;;;3.97;;
43801;SDS011;29429;51.074;13.764;2023-10-13T19:12:50;8.45;;;4.35;;
43801;SDS011;29429;51.074;13.764;2023-10-13T19:16:26;9.00;;;3.95;;
43801;SDS011;29429;51.074;13.764;2023-10-13T19:18:54;6.60;;;4.20;;
43801;SDS011;29429;51.074;13.764;2023-10-13T19:21:25;7.00;;;3.90;;
43801;SDS011;29429;51.074;13.764;2023-10-13T19:23:53;5.63;;;3.83;;
43801;SDS011;29429;51.074;13.764;2023-10-13T19:26:24;7.68;;;4.20;;
43801;SDS011;29429;51.074;13.764;2023-10-13T19:28:54;11.15;;;3.67;;
43801;SDS011;29429;51.074;13.764;2023-10-13T19:31:23;7.50;;;3.78;;
43801;SDS011;29429;51.074;13.764;2023-10-13T19:33:53;7.70;;;3.95;;
43801;SDS011;29429;51.074;13.764;2023-10-13T19:36:21;8.18;;;3.97;;
43801;SDS011;29429;51.074;13.764;2023-10-13T19:38:53;7.00;;;4.07;;
43801;SDS011;29429;51.074;13.764;2023-10-13T19:41:21;6.35;;;3.97;;
43801;SDS011;29429;51.074;13.764;2023-10-13T19:43:53;6.65;;;3.83;;
43801;SDS011;29429;51.074;13.764;2023-10-13T19:49:13;8.20;;;3.72;;
43801;SDS011;29429;51.074;13.764;2023-10-13T19:51:43;7.53;;;3.90;;
43801;SDS011;29429;51.074;13.764;2023-10-13T19:54:10;6.80;;;3.83;;
43801;SDS011;29429;51.074;13.764;2023-10-13T19:56:41;6.20;;;3.60;;
43801;SDS011;29429;51.074;13.764;2023-10-13T19:59:08;9.00;;;4.28;;
43801;SDS011;29429;51.074;13.764;2023-10-13T20:01:40;8.27;;;3.60;;
43801;SDS011;29429;51.074;13.764;2023-10-13T20:04:09;7.18;;;3.72;;
43801;SDS011;29429;51.074;13.764;2023-10-13T20:06:45;9.15;;;3.70;;
43801;SDS011;29429;51.074;13.764;2023-10-13T20:09:13;6.95;;;3.63;;
43801;SDS011;29429;51.074;13.764;2023-10-13T20:11:51;7.50;;;3.97;;
43801;SDS011;29429;51.074;13.764;2023-10-13T20:14:25;6.68;;;3.88;;
43801;SDS011;29429;51.074;13.764;2023-10-13T20:16:55;5.00;;;3.10;;
43801;SDS011;29429;51.074;13.764;2023-10-13T20:19:31;6.30;;;3.83;;
43801;SDS011;29429;51.074;13.764;2023-10-13T20:22:03;5.68;;;3.53;;
43801;SDS011;29429;51.074;13.764;2023-10-13T20:24:36;7.10;;;3.63;;
43801;SDS011;29429;51.074;13.764;2023-10-13T20:27:05;8.18;;;3.28;;
43801;SDS011;29429;51.074;13.764;2023-10-13T20:29:35;5.32;;;3.38;;
43801;SDS011;29429;51.074;13.764;2023-10-13T20:32:11;4.72;;;3.45;;
43801;SDS011;29429;51.074;13.764;2023-10-13T20:34:43;8.05;;;3.55;;
43801;SDS011;29429;51.074;13.764;2023-10-13T20:37:10;8.40;;;3.80;;
43801;SDS011;29429;51.074;13.764;2023-10-13T20:42:27;5.20;;;3.33;;
43801;SDS011;29429;51.074;13.764;2023-10-13T20:44:56;6.90;;;3.25;;
43801;SDS011;29429;51.074;13.764;2023-10-13T20:47:24;7.15;;;3.28;;
43801;SDS011;29429;51.074;13.764;2023-10-13T20:49:55;7.55;;;3.63;;
43801;SDS011;29429;51.074;13.764;2023-10-13T20:52:23;7.15;;;3.70;;
43801;SDS011;29429;51.074;13.764;2023-10-13T20:54:53;4.80;;;2.97;;
43801;SDS011;29429;51.074;13.764;2023-10-13T20:57:22;9.93;;;3.63;;
43801;SDS011;29429;51.074;13.764;2023-10-13T20:59:50;8.15;;;3.17;;
43801;SDS011;29429;51.074;13.764;2023-10-13T21:02:18;4.90;;;3.25;;
43801;SDS011;29429;51.074;13.764;2023-10-13T21:04:49;7.57;;;3.75;;
43801;SDS011;29429;51.074;13.764;2023-10-13T21:07:17;3.70;;;2.60;;
43801;SDS011;29429;51.074;13.764;2023-10-13T21:09:48;5.93;;;3.25;;
43801;SDS011;29429;51.074;13.764;2023-10-13T21:12:18;6.47;;;3.72;;
43801;SDS011;29429;51.074;13.764;2023-10-13T21:14:46;6.60;;;2.88;;
43801;SDS011;29429;51.074;13.764;2023-10-13T21:17:17;5.10;;;3.58;;
43801;SDS011;29429;51.074;13.764;2023-10-13T21:19:46;6.75;;;3.10;;
43801;SDS011;29429;51.074;13.764;2023-10-13T21:22:15;6.72;;;2.95;;
43801;SDS011;29429;51.074;13.764;2023-10-13T21:24:49;6.25;;;3.80;;
43801;SDS011;29429;51.074;13.764;2023-10-13T21:27:17;5.93;;;3.30;;
43801;SDS011;29429;51.074;13.764;2023-10-13T21:29:48;6.45;;;3.08;;
43801;SDS011;29429;51.074;13.764;2023-10-13T21:32:26;9.98;;;3.47;;
43801;SDS011;29429;51.074;13.764;2023-10-13T21:34:55;8.02;;;3.08;;
43801;SDS011;29429;51.074;13.764;2023-10-13T21:37:28;6.75;;;3.78;;
43801;SDS011;29429;51.074;13.764;2023-10-13T21:39:55;6.63;;;3.45;;
43801;SDS011;29429;51.074;13.764;2023-10-13T21:42:24;5.15;;;3.33;;
43801;SDS011;29429;51.074;13.764;2023-10-13T21:44:52;5.05;;;3.10;;
43801;SDS011;29429;51.074;13.764;2023-10-13T21:47:37;8.38;;;3.50;;
43801;SDS011;29429;51.074;13.764;2023-10-13T21:50:05;5.63;;;2.80;;
43801;SDS011;29429;51.074;13.764;2023-10-13T21:52:39;9.10;;;2.80;;
43801;SDS011;29429;51.074;13.764;2023-10-13T21:55:08;7.88;;;3.40;;
43801;SDS011;29429;51.074;13.764;2023-10-13T21:57:49;5.53;;;2.67;;
43801;SDS011;29429;51.074;13.764;2023-10-13T22:00:19;7.05;;;2.47;;
43801;SDS011;29429;51.074;13.764;2023-10-13T22:03:00;8.85;;;2.55;;
43801;SDS011;29429;51.074;13.764;2023-10-13T22:05:29;8.18;;;2.95;;
43801;SDS011;29429;51.074;13.764;2023-10-13T22:08:01;9.25;;;3.58;;
43801;SDS011;29429;51.074;13.764;2023-10-13T22:10:29;4.78;;;2.40;;
43801;SDS011;29429;51.074;13.764;2023-10-13T22:12:59;5.15;;;2.47;;
43801;SDS011;29429;51.074;13.764;2023-10-13T22:15:29;9.38;;;2.58;;
43801;SDS011;29429;51.074;13.764;2023-10-13T22:17:59;7.13;;;2.63;;
43801;SDS011;29429;51.074;13.764;2023-10-13T22:20:29;10.63;;;2.75;;
43801;SDS011;29429;51.074;13.764;2023-10-13T22:23:00;6.10;;;2.55;;
43801;SDS011;29429;51.074;13.764;2023-10-13T22:25:28;8.07;;;2.92;;
43801;SDS011;29429;51.074;13.764;2023-10-13T22:28:04;7.45;;;2.67;;
43801;SDS011;29429;51.074;13.764;2023-10-13T22:30:32;8.27;;;3.03;;
43801;SDS011;29429;51.074;13.764;2023-10-13T22:33:01;4.70;;;2.20;;
43801;SDS011;29429;51.074;13.764;2023-10-13T22:35:28;7.95;;;3.17;;
43801;SDS011;29429;51.074;13.764;2023-10-13T22:37:56;9.00;;;3.53;;
43801;SDS011;29429;51.074;13.764;2023-10-13T22:40:28;8.00;;;3.13;;
43801;SDS011;29429;51.074;13.764;2023-10-13T22:42:57;5.18;;;2.53;;
43801;SDS011;29429;51.074;13.764;2023-10-13T22:45:25;6.80;;;2.97;;
43801;SDS011;29429;51.074;13.764;2023-10-13T22:47:56;7.03;;;2.83;;
43801;SDS011;29429;51.074;13.764;2023-10-13T22:50:33;7.45;;;2.42;;
43801;SDS011;29429;51.074;13.764;2023-10-13T22:53:55;7.35;;;2.72;;
43801;SDS011;29429;51.074;13.764;2023-10-13T23:08:53;6.57;;;2.38;;
43801;SDS011;29429;51.074;13.764;2023-10-13T23:11:37;7.93;;;2.22;;
43801;SDS011;29429;51.074;13.764;2023-10-13T23:14:14;5.93;;;2.80;;
43801;SDS011;29429;51.074;13.764;2023-10-13T23:16:45;5.65;;;3.25;;
43801;SDS011;29429;51.074;13.764;2023-10-13T23:19:13;5.47;;;2.47;;
43801;SDS011;29429;51.074;13.764;2023-10-13T23:21:44;7.60;;;2.63;;
43801;SDS011;29429;51.074;13.764;2023-10-13T23:24:14;5.68;;;2.25;;
43801;SDS011;29429;51.074;13.764;2023-10-13T23:26:45;6.75;;;2.63;;
43801;SDS011;29429;51.074;13.764;2023-10-13T23:29:24;5.07;;;2.15;;
43801;SDS011;29429;51.074;13.764;2023-10-13T23:31:58;6.13;;;2.30;;
43801;SDS011;29429;51.074;13.764;2023-10-13T23:34:29;8.50;;;3.03;;
43801;SDS011;29429;51.074;13.764;2023-10-13T23:36:57;6.55;;;2.40;;
43801;SDS011;29429;51.074;13.764;2023-10-13T23:39:28;4.22;;;2.42;;
43801;SDS011;29429;51.074;13.764;2023-10-13T23:42:01;5.40;;;2.75;;